Time;durP1;ratioP1;P1;durP2;ratioP2;P2;SDS_P1;SDS_P2;PMS_P1;PMS_P2;Temp;Humidity;BMP_temperature;BMP_pressure;BME280_temperature;BME280_humidity;BME280_pressure;Samples;Min_cycle;Max_cycle;Signal;HPM_P1;HPM_P2
2022/10/21 00:01:49;;;;;;;27.00;10.70;;;20.60;90.10;;;;;;5021537;28;20181;-70
2022/10/21 00:04:17;;;;;;;26.77;10.57;;;20.80;90.30;;;;;;5026694;28;20243;-70
2022/10/21 00:06:45;;;;;;;22.57;9.40;;;20.90;90.30;;;;;;5014046;28;20213;-71
2022/10/21 00:09:13;;;;;;;26.83;9.60;;;21.00;89.50;;;;;;5015479;28;20272;-71
2022/10/21 00:11:40;;;;;;;22.60;9.93;;;21.10;89.50;;;;;;5020127;28;20260;-71
2022/10/21 00:14:07;;;;;;;23.17;8.30;;;21.40;89.80;;;;;;5029078;28;20185;-72
2022/10/21 00:16:35;;;;;;;19.93;8.10;;;21.30;88.70;;;;;;5023415;28;20271;-75
2022/10/21 00:19:02;;;;;;;23.30;6.83;;;21.50;89.00;;;;;;5033845;28;20180;-73
2022/10/21 00:21:30;;;;;;;20.60;7.50;;;21.30;88.40;;;;;;5017918;28;20639;-77
2022/10/21 00:23:57;;;;;;;20.23;6.70;;;21.50;88.20;;;;;;5013340;28;20173;-74
2022/10/21 00:26:25;;;;;;;20.17;6.00;;;21.60;88.20;;;;;;5011378;28;20714;-75
2022/10/21 00:28:56;;;;;;;25.40;6.10;;;21.60;87.70;;;;;;5013528;28;20195;-74
2022/10/21 00:31:25;;;;;;;16.00;5.60;;;21.80;87.60;;;;;;5014983;28;20193;-75
2022/10/21 00:33:52;;;;;;;22.03;6.13;;;21.70;86.70;;;;;;5029313;28;20181;-74
2022/10/21 00:36:20;;;;;;;13.23;5.57;;;21.80;86.80;;;;;;5027046;28;20185;-74
2022/10/21 00:38:48;;;;;;;15.27;5.20;;;22.00;86.70;;;;;;5031587;28;20645;-74
2022/10/21 00:41:18;;;;;;;17.57;5.50;;;22.60;86.50;;;;;;5021901;28;20226;-74
2022/10/21 00:43:58;;;;;;;14.77;5.57;;;23.10;84.40;;;;;;5030059;28;20218;-73
2022/10/21 00:46:51;;;;;;;13.67;4.53;;;23.10;84.60;;;;;;5024603;28;20201;-73
2022/10/21 00:49:26;;;;;;;15.83;5.17;;;23.20;84.10;;;;;;5063425;28;20570;-73
2022/10/21 00:51:58;;;;;;;13.70;4.73;;;23.00;84.20;;;;;;5068143;28;20194;-73
2022/10/21 00:54:28;;;;;;;12.97;4.87;;;22.90;83.00;;;;;;5064093;28;20667;-73
2022/10/21 00:56:58;;;;;;;13.30;5.23;;;22.80;84.70;;;;;;5066474;28;20644;-74
2022/10/21 00:59:30;;;;;;;12.67;4.57;;;22.60;84.20;;;;;;5067731;28;20198;-73
2022/10/21 01:01:58;;;;;;;23.17;5.10;;;22.60;84.60;;;;;;5065615;28;20187;-73
2022/10/21 01:04:25;;;;;;;18.70;4.90;;;22.50;85.20;;;;;;5069640;28;20240;-73
2022/10/21 01:06:53;;;;;;;15.03;5.43;;;22.30;85.00;;;;;;5070277;28;20211;-73
2022/10/21 01:09:22;;;;;;;20.17;5.83;;;22.30;85.40;;;;;;5059584;28;20220;-72
2022/10/21 01:11:50;;;;;;;19.93;5.77;;;22.20;85.50;;;;;;5066575;28;20180;-73
2022/10/21 01:14:46;;;;;;;19.37;5.97;;;22.20;85.70;;;;;;5062796;28;20189;-73
2022/10/21 01:17:40;;;;;;;15.63;5.07;;;22.00;85.90;;;;;;5062341;28;20176;-72
2022/10/21 01:20:19;;;;;;;16.20;6.23;;;22.10;86.00;;;;;;5065190;28;20176;-72
2022/10/21 01:23:17;;;;;;;15.37;6.10;;;22.20;86.30;;;;;;5069478;28;20722;-73
2022/10/21 01:26:16;;;;;;;17.17;7.03;;;22.20;86.10;;;;;;5064189;28;20190;-72
2022/10/21 01:28:59;;;;;;;19.47;6.03;;;22.10;86.00;;;;;;5068403;28;20210;-72
2022/10/21 01:32:02;;;;;;;19.30;6.67;;;22.00;86.50;;;;;;5059083;28;20542;-72
2022/10/21 01:34:38;;;;;;;18.50;6.20;;;22.00;86.40;;;;;;5064904;28;20555;-72
2022/10/21 01:37:23;;;;;;;24.20;5.27;;;22.20;86.30;;;;;;5070711;28;20515;-72
2022/10/21 01:39:56;;;;;;;19.73;5.67;;;22.30;86.20;;;;;;5066904;28;20227;-73
2022/10/21 01:42:41;;;;;;;18.40;6.40;;;22.40;85.80;;;;;;5064738;28;20187;-73
2022/10/21 01:45:25;;;;;;;21.03;9.80;;;22.30;85.20;;;;;;5064585;28;20181;-72
2022/10/21 01:48:09;;;;;;;17.57;5.90;;;22.40;85.30;;;;;;5072662;28;20710;-71
2022/10/21 01:50:46;;;;;;;29.13;13.53;;;22.50;84.70;;;;;;5056482;28;20180;-71
2022/10/21 01:53:15;;;;;;;17.57;6.97;;;22.70;84.20;;;;;;5061483;28;20210;-71
2022/10/21 01:55:44;;;;;;;20.20;5.37;;;22.80;84.40;;;;;;5064353;28;20188;-71
2022/10/21 01:58:25;;;;;;;12.80;4.90;;;22.80;83.70;;;;;;5063609;28;20656;-71
2022/10/21 02:00:55;;;;;;;16.67;4.97;;;23.00;83.50;;;;;;5061849;28;20179;-72
2022/10/21 02:03:32;;;;;;;14.87;4.77;;;23.20;83.30;;;;;;5066933;28;20179;-72
2022/10/21 02:05:59;;;;;;;22.40;4.80;;;23.30;82.50;;;;;;5069603;28;20175;-72
2022/10/21 02:08:27;;;;;;;17.33;4.67;;;23.30;81.90;;;;;;5064017;28;20657;-72
2022/10/21 02:11:01;;;;;;;14.73;4.63;;;23.40;81.80;;;;;;5072424;28;20198;-72
2022/10/21 02:13:53;;;;;;;17.53;5.53;;;23.30;80.70;;;;;;5069311;28;20191;-72
2022/10/21 02:16:24;;;;;;;16.60;4.80;;;23.30;81.90;;;;;;5062813;28;20190;-71
2022/10/21 02:18:52;;;;;;;15.40;4.67;;;23.30;82.00;;;;;;5064695;28;20553;-72
2022/10/21 02:21:23;;;;;;;14.70;4.80;;;23.60;80.80;;;;;;5069715;28;20270;-71
2022/10/21 02:24:08;;;;;;;14.37;4.50;;;23.80;80.40;;;;;;5071075;28;20246;-71
2022/10/21 02:26:35;;;;;;;12.07;4.63;;;23.70;81.20;;;;;;5067198;28;20203;-74
2022/10/21 02:29:03;;;;;;;15.03;5.00;;;23.50;80.50;;;;;;5060826;28;20669;-71
2022/10/21 02:31:45;;;;;;;17.73;4.43;;;23.60;80.70;;;;;;5070249;28;20232;-72
2022/10/21 02:34:42;;;;;;;12.50;5.23;;;23.70;80.30;;;;;;5067781;28;20205;-71
2022/10/21 02:37:29;;;;;;;20.60;5.87;;;23.70;80.20;;;;;;5055674;28;20287;-73
2022/10/21 02:39:59;;;;;;;19.07;5.03;;;23.70;80.30;;;;;;5063923;28;20183;-72
2022/10/21 02:42:32;;;;;;;21.40;4.40;;;23.80;80.30;;;;;;5070042;28;20184;-70
2022/10/21 02:45:01;;;;;;;17.73;4.83;;;23.80;80.30;;;;;;5068381;28;20203;-71
2022/10/21 02:47:29;;;;;;;18.93;4.63;;;23.60;80.60;;;;;;5063568;28;20278;-71
2022/10/21 02:49:56;;;;;;;21.83;5.27;;;23.60;80.90;;;;;;5069684;28;20233;-71
2022/10/21 02:52:23;;;;;;;24.17;4.77;;;23.50;81.10;;;;;;5070071;28;20191;-70
2022/10/21 02:54:51;;;;;;;15.53;4.10;;;23.30;81.40;;;;;;5079385;28;20191;-71
2022/10/21 02:57:18;;;;;;;15.60;4.10;;;23.20;81.50;;;;;;5075264;28;20636;-71
2022/10/21 02:59:45;;;;;;;16.77;4.07;;;23.20;81.00;;;;;;5066311;28;20211;-71
2022/10/21 03:02:13;;;;;;;11.10;3.40;;;22.90;81.40;;;;;;5064865;28;20183;-69
2022/10/21 03:04:40;;;;;;;13.63;3.47;;;22.70;82.40;;;;;;5069901;28;20212;-71
2022/10/21 03:07:08;;;;;;;14.43;4.00;;;22.30;83.20;;;;;;5076265;28;20364;-73
2022/10/21 03:09:35;;;;;;;13.90;3.47;;;22.30;83.20;;;;;;5069655;28;20183;-72
2022/10/21 03:12:02;;;;;;;15.47;3.97;;;22.20;83.90;;;;;;5061563;28;20207;-70
2022/10/21 03:14:30;;;;;;;20.17;3.67;;;22.20;84.10;;;;;;5078388;28;20700;-72
2022/10/21 03:16:57;;;;;;;13.37;3.50;;;22.00;84.30;;;;;;5065690;28;20209;-69
2022/10/21 03:19:25;;;;;;;11.47;3.77;;;22.00;84.20;;;;;;5063313;28;20194;-73
2022/10/21 03:21:52;;;;;;;16.80;3.27;;;22.00;84.30;;;;;;5066151;28;20604;-70
2022/10/21 03:24:19;;;;;;;17.00;3.47;;;21.90;84.10;;;;;;5061676;28;20241;-70
2022/10/21 03:26:47;;;;;;;17.60;3.70;;;21.80;84.60;;;;;;5065416;28;20231;-72
2022/10/21 03:29:14;;;;;;;12.30;3.10;;;21.90;84.20;;;;;;5062381;28;20191;-74
2022/10/21 03:31:42;;;;;;;14.40;4.20;;;21.80;84.30;;;;;;5067533;28;20274;-73
2022/10/21 03:34:09;;;;;;;11.60;2.80;;;21.80;83.90;;;;;;5071167;28;20195;-73
2022/10/21 03:36:36;;;;;;;11.97;3.10;;;21.80;83.70;;;;;;5059431;28;20180;-71
2022/10/21 03:39:04;;;;;;;9.53;2.93;;;21.90;83.50;;;;;;5048445;28;20198;-71
2022/10/21 03:41:31;;;;;;;7.73;2.43;;;22.40;82.50;;;;;;5070633;28;20175;-71
2022/10/21 03:43:58;;;;;;;11.30;2.90;;;22.70;80.80;;;;;;5071462;28;20191;-72
2022/10/21 03:46:26;;;;;;;8.40;2.17;;;23.20;80.40;;;;;;5062062;28;20207;-71
2022/10/21 03:48:53;;;;;;;7.57;1.60;;;23.40;78.50;;;;;;5068839;28;20265;-71
2022/10/21 03:51:20;;;;;;;9.63;1.80;;;23.30;77.40;;;;;;5063822;28;20633;-70
2022/10/21 03:53:48;;;;;;;7.20;1.70;;;23.20;78.20;;;;;;5069893;28;20187;-71
2022/10/21 03:56:15;;;;;;;4.80;1.87;;;23.00;77.50;;;;;;5069692;28;20286;-72
2022/10/21 03:58:43;;;;;;;6.60;1.63;;;22.90;77.80;;;;;;5059357;28;20656;-71
2022/10/21 04:01:14;;;;;;;8.47;2.00;;;22.90;78.10;;;;;;5064878;28;20180;-72
2022/10/21 04:03:41;;;;;;;6.60;2.03;;;22.90;77.80;;;;;;5070323;28;20205;-71
2022/10/21 04:06:09;;;;;;;10.30;2.80;;;22.70;78.70;;;;;;5070632;28;20199;-69
2022/10/21 04:08:36;;;;;;;12.50;2.17;;;22.60;79.60;;;;;;5067947;28;20196;-71
2022/10/21 04:11:04;;;;;;;9.33;2.37;;;22.60;80.10;;;;;;5069472;28;20359;-71
2022/10/21 04:13:31;;;;;;;15.63;2.73;;;22.80;79.90;;;;;;5049137;28;20548;-71
2022/10/21 04:16:04;;;;;;;10.27;2.63;;;22.80;79.80;;;;;;5066422;28;20194;-73
2022/10/21 04:18:32;;;;;;;6.10;1.90;;;22.90;79.80;;;;;;5069547;28;20236;-72
2022/10/21 04:20:59;;;;;;;12.90;2.47;;;22.90;79.60;;;;;;5064993;28;20225;-71
2022/10/21 04:23:26;;;;;;;11.43;2.67;;;23.00;79.30;;;;;;5068037;28;20186;-73
2022/10/21 04:25:54;;;;;;;7.97;1.90;;;23.10;79.40;;;;;;5057001;28;20195;-71
2022/10/21 04:28:21;;;;;;;14.13;2.80;;;23.30;78.50;;;;;;5053460;28;20223;-70
2022/10/21 04:30:50;;;;;;;7.87;2.10;;;23.80;77.50;;;;;;5052320;28;20180;-70
2022/10/21 04:33:17;;;;;;;14.50;2.67;;;24.00;76.10;;;;;;5071946;28;20272;-69
2022/10/21 04:35:45;;;;;;;10.83;3.00;;;24.40;74.80;;;;;;5052808;28;20172;-69
2022/10/21 04:38:12;;;;;;;14.30;2.70;;;25.00;72.30;;;;;;5052822;28;20234;-71
2022/10/21 04:40:40;;;;;;;16.03;2.90;;;25.40;71.00;;;;;;5052929;28;20187;-69
2022/10/21 04:43:08;;;;;;;14.73;2.97;;;25.80;69.00;;;;;;5058280;28;20214;-70
2022/10/21 04:45:38;;;;;;;13.40;3.00;;;26.20;67.90;;;;;;5067862;28;20176;-72
2022/10/21 04:48:06;;;;;;;14.77;3.67;;;26.30;67.50;;;;;;5059617;28;20255;-68
2022/10/21 04:50:34;;;;;;;17.40;3.30;;;26.20;67.60;;;;;;5052656;28;20225;-71
2022/10/21 04:53:01;;;;;;;15.80;3.13;;;25.60;69.10;;;;;;5051488;28;20184;-71
2022/10/21 04:55:28;;;;;;;16.80;3.50;;;25.20;69.70;;;;;;5052156;28;20168;-70
2022/10/21 04:57:56;;;;;;;16.87;3.63;;;25.40;69.20;;;;;;5052497;28;20188;-69
2022/10/21 05:00:23;;;;;;;16.40;3.67;;;25.80;68.60;;;;;;5052850;28;20784;-70
2022/10/21 05:02:50;;;;;;;18.33;4.13;;;25.80;68.50;;;;;;5051951;28;20183;-69
2022/10/21 05:05:18;;;;;;;14.17;3.80;;;25.50;69.40;;;;;;5052008;28;20203;-69
2022/10/21 05:07:45;;;;;;;20.27;4.33;;;25.30;69.70;;;;;;5051244;28;20298;-71
2022/10/21 05:10:12;;;;;;;15.37;3.53;;;25.00;70.70;;;;;;5052416;28;20505;-71
2022/10/21 05:12:40;;;;;;;15.93;3.40;;;24.70;71.50;;;;;;5051027;28;20171;-69
2022/10/21 05:15:08;;;;;;;18.43;3.90;;;24.40;71.90;;;;;;5051628;28;20180;-71
2022/10/21 05:17:38;;;;;;;23.93;4.50;;;24.30;72.50;;;;;;5062807;28;20251;-71
2022/10/21 05:20:05;;;;;;;16.03;3.80;;;24.70;71.50;;;;;;5059098;28;20207;-71
2022/10/21 05:22:33;;;;;;;21.83;4.40;;;24.50;72.60;;;;;;5034707;28;20657;-74
2022/10/21 05:25:00;;;;;;;20.03;3.47;;;24.40;72.70;;;;;;5052332;28;20566;-71
2022/10/21 05:27:28;;;;;;;14.90;3.37;;;24.30;73.20;;;;;;5051733;28;20313;-72
2022/10/21 05:29:57;;;;;;;9.13;2.67;;;24.00;73.20;;;;;;5057640;28;20177;-72
2022/10/21 05:32:24;;;;;;;15.70;3.33;;;23.70;74.00;;;;;;5064402;28;20179;-70
2022/10/21 05:34:52;;;;;;;10.83;2.13;;;23.50;74.40;;;;;;5066139;28;20180;-70
2022/10/21 05:37:19;;;;;;;12.40;2.57;;;23.40;74.60;;;;;;5068863;28;20232;-70
2022/10/21 05:39:46;;;;;;;18.83;8.77;;;23.30;74.30;;;;;;5052035;28;20335;-70
2022/10/21 05:42:14;;;;;;;9.50;2.23;;;23.10;75.00;;;;;;5065203;28;20539;-69
2022/10/21 05:44:41;;;;;;;7.70;2.13;;;23.00;74.60;;;;;;5070911;28;20194;-71
2022/10/21 05:47:08;;;;;;;9.27;2.00;;;23.10;75.00;;;;;;5072003;28;20284;-71
2022/10/21 05:49:36;;;;;;;9.10;2.20;;;23.00;74.80;;;;;;5076244;28;20206;-69
2022/10/21 05:52:03;;;;;;;11.43;2.30;;;23.00;74.80;;;;;;5066208;28;20236;-71
2022/10/21 05:54:31;;;;;;;10.43;2.17;;;22.90;74.90;;;;;;5074099;28;20186;-71
2022/10/21 05:56:58;;;;;;;13.93;2.63;;;22.80;75.50;;;;;;5070098;28;20203;-71
2022/10/21 05:59:26;;;;;;;7.87;2.07;;;22.80;76.10;;;;;;5066350;28;20191;-71
2022/10/21 06:01:53;;;;;;;8.00;1.70;;;22.50;76.80;;;;;;5073025;28;20186;-71
2022/10/21 06:04:21;;;;;;;8.87;1.70;;;22.40;77.30;;;;;;5070419;28;20271;-71
2022/10/21 06:06:48;;;;;;;6.83;1.80;;;22.30;77.90;;;;;;5056071;28;20249;-71
2022/10/21 06:09:15;;;;;;;9.27;2.00;;;22.20;78.20;;;;;;5059688;28;20545;-71
2022/10/21 06:11:43;;;;;;;6.67;2.03;;;22.10;77.80;;;;;;5072787;28;20195;-71
2022/10/21 06:14:10;;;;;;;11.67;2.10;;;22.10;78.20;;;;;;5083409;28;20175;-70
2022/10/21 06:16:38;;;;;;;8.73;1.90;;;22.00;78.20;;;;;;5081252;28;20180;-71
2022/10/21 06:19:05;;;;;;;6.73;1.80;;;21.90;78.90;;;;;;5076957;28;20201;-73
2022/10/21 06:21:32;;;;;;;7.30;1.90;;;21.90;79.70;;;;;;5079511;28;20236;-71
2022/10/21 06:24:00;;;;;;;7.47;2.13;;;21.80;80.30;;;;;;5076890;28;20191;-74
2022/10/21 06:26:27;;;;;;;8.33;2.17;;;21.90;80.20;;;;;;5071667;28;20266;-73
2022/10/21 06:28:54;;;;;;;8.67;1.80;;;22.00;80.50;;;;;;5066839;28;20179;-76
2022/10/21 06:31:22;;;;;;;6.07;1.60;;;21.90;80.10;;;;;;5077284;28;20652;-72
2022/10/21 06:33:49;;;;;;;9.97;1.80;;;21.90;80.40;;;;;;5075929;28;20225;-72
2022/10/21 06:36:17;;;;;;;6.40;1.70;;;21.80;80.50;;;;;;5072064;28;20179;-74
2022/10/21 06:38:44;;;;;;;6.13;1.50;;;21.70;80.90;;;;;;5072324;28;20194;-74
2022/10/21 06:41:14;;;;;;;5.03;1.60;;;21.50;81.70;;;;;;5079119;28;20172;-71
2022/10/21 06:43:41;;;;;;;5.83;1.60;;;21.60;81.90;;;;;;5071220;28;20190;-71
2022/10/21 06:46:12;;;;;;;9.00;2.40;;;21.50;82.20;;;;;;5072822;28;20178;-76
2022/10/21 06:48:39;;;;;;;9.77;2.10;;;21.30;83.00;;;;;;5060078;28;20230;-70
2022/10/21 06:51:13;;;;;;;13.70;2.40;;;21.20;83.60;;;;;;5069284;28;20234;-70
2022/10/21 06:53:42;;;;;;;13.10;2.50;;;21.10;84.10;;;;;;5068771;28;20183;-67
2022/10/21 06:56:12;;;;;;;7.77;2.50;;;21.10;84.30;;;;;;5067573;28;20212;-68
2022/10/21 06:58:42;;;;;;;13.90;3.13;;;20.90;84.60;;;;;;5069454;28;20182;-70
2022/10/21 07:01:17;;;;;;;11.03;3.07;;;20.90;84.90;;;;;;5068392;28;20179;-74
2022/10/21 07:03:44;;;;;;;10.57;2.43;;;20.90;85.00;;;;;;5067575;28;20175;-75
2022/10/21 07:06:12;;;;;;;14.13;2.57;;;20.80;85.00;;;;;;5066732;28;20210;-72
2022/10/21 07:08:39;;;;;;;13.97;3.30;;;20.80;85.30;;;;;;5062570;28;20195;-72
2022/10/21 07:11:08;;;;;;;16.80;3.10;;;20.80;85.40;;;;;;5049061;28;20209;-73
2022/10/21 07:13:36;;;;;;;17.07;3.27;;;20.80;85.30;;;;;;5060801;28;20180;-73
2022/10/21 07:16:11;;;;;;;13.80;2.90;;;20.70;85.50;;;;;;5067007;28;20532;-72
2022/10/21 07:18:39;;;;;;;15.40;3.70;;;20.70;85.50;;;;;;5057226;28;20180;-69
2022/10/21 07:21:08;;;;;;;11.10;3.07;;;20.70;85.70;;;;;;5065439;28;20957;-69
2022/10/21 07:23:36;;;;;;;16.77;3.57;;;20.60;86.00;;;;;;5064212;28;20187;-74
2022/10/21 07:26:07;;;;;;;18.87;4.07;;;20.50;86.20;;;;;;5064246;28;20182;-70
2022/10/21 07:28:35;;;;;;;16.00;3.60;;;20.40;86.60;;;;;;5066698;28;20278;-71
2022/10/21 07:31:04;;;;;;;29.17;4.90;;;20.30;86.80;;;;;;5054027;28;20176;-72
2022/10/21 07:33:35;;;;;;;19.00;4.60;;;20.30;87.00;;;;;;5053033;28;20266;-71
2022/10/21 07:36:08;;;;;;;19.90;5.13;;;20.30;87.20;;;;;;5054277;28;20528;-68
2022/10/21 07:38:36;;;;;;;19.53;5.33;;;20.30;87.60;;;;;;5054170;28;20641;-71
2022/10/21 07:41:04;;;;;;;18.33;5.03;;;20.30;87.90;;;;;;5054467;28;20658;-68
2022/10/21 07:43:32;;;;;;;18.53;4.57;;;20.20;87.80;;;;;;5053808;28;20195;-67
2022/10/21 07:46:00;;;;;;;18.43;5.13;;;20.10;88.00;;;;;;5054414;28;20179;-67
2022/10/21 07:48:27;;;;;;;20.27;4.80;;;20.10;88.20;;;;;;5055877;28;20239;-68
2022/10/21 07:51:01;;;;;;;24.10;5.30;;;20.10;88.30;;;;;;5054207;28;20274;-69
2022/10/21 07:53:28;;;;;;;22.57;4.33;;;20.00;88.40;;;;;;5053821;28;20215;-70
2022/10/21 07:56:07;;;;;;;19.70;4.30;;;20.10;88.50;;;;;;5053904;28;20274;-73
2022/10/21 07:58:35;;;;;;;19.40;4.43;;;20.10;88.40;;;;;;5053798;28;20573;-69
2022/10/21 08:01:05;;;;;;;19.33;4.90;;;20.10;88.50;;;;;;5069305;28;20656;-73
2022/10/21 08:03:32;;;;;;;21.13;5.17;;;20.10;88.60;;;;;;5059501;28;20237;-70
2022/10/21 08:06:00;;;;;;;18.67;4.67;;;20.10;88.70;;;;;;5058228;28;20187;-71
2022/10/21 08:08:28;;;;;;;17.77;4.37;;;20.10;88.80;;;;;;5061900;28;20215;-72
2022/10/21 08:10:56;;;;;;;20.23;4.93;;;20.00;88.90;;;;;;5053350;28;20203;-71
2022/10/21 08:13:23;;;;;;;22.60;5.43;;;20.10;89.00;;;;;;5060515;28;20575;-70
2022/10/21 08:15:53;;;;;;;20.20;5.23;;;20.10;88.90;;;;;;5061486;28;20246;-68
2022/10/21 08:18:21;;;;;;;27.33;5.73;;;20.10;89.00;;;;;;5060715;28;20641;-71
2022/10/21 08:20:49;;;;;;;19.13;5.50;;;20.10;89.00;;;;;;5066887;28;20175;-72
2022/10/21 08:23:20;;;;;;;23.90;4.77;;;20.00;89.00;;;;;;5068931;28;20213;-71
2022/10/21 08:25:54;;;;;;;22.37;5.37;;;20.00;88.90;;;;;;5075428;28;20178;-71
2022/10/21 08:28:23;;;;;;;20.37;5.00;;;20.00;88.80;;;;;;5055660;28;20257;-68
2022/10/21 08:30:51;;;;;;;24.40;4.67;;;20.00;88.60;;;;;;5053591;28;20176;-72
2022/10/21 08:33:19;;;;;;;19.87;4.70;;;20.00;88.40;;;;;;5053563;28;20180;-72
2022/10/21 08:35:46;;;;;;;16.43;3.83;;;19.90;88.10;;;;;;5053346;28;20175;-72
2022/10/21 08:38:13;;;;;;;16.67;3.77;;;19.90;87.90;;;;;;5065223;28;20190;-68
2022/10/21 08:40:46;;;;;;;18.60;3.80;;;19.90;87.70;;;;;;5065123;28;20221;-70
2022/10/21 08:43:24;;;;;;;11.57;3.67;;;19.90;87.60;;;;;;5062600;28;20582;-69
2022/10/21 08:46:02;;;;;;;15.17;3.53;;;19.90;87.50;;;;;;5062578;28;20645;-70
2022/10/21 08:48:42;;;;;;;12.33;2.87;;;19.90;87.30;;;;;;5057040;28;20262;-72
2022/10/21 08:51:44;;;;;;;15.17;3.60;;;19.80;87.10;;;;;;5058231;28;20229;-71
2022/10/21 08:54:32;;;;;;;20.87;3.53;;;19.80;86.90;;;;;;5046463;28;20191;-71
2022/10/21 08:57:01;;;;;;;12.17;3.47;;;19.90;87.00;;;;;;5053062;28;20191;-70
2022/10/21 08:59:29;;;;;;;18.10;4.10;;;19.90;87.20;;;;;;5057917;28;20535;-71
2022/10/21 09:02:18;;;;;;;10.23;3.17;;;19.80;87.20;;;;;;5065480;28;20186;-70
2022/10/21 09:05:20;;;;;;;12.77;2.80;;;19.80;87.20;;;;;;5063953;28;20179;-68
2022/10/21 09:07:47;;;;;;;18.33;3.60;;;19.80;87.10;;;;;;4968432;28;20225;-71
2022/10/21 09:10:51;;;;;;;13.43;2.93;;;19.80;86.90;;;;;;5041417;28;20222;-70
2022/10/21 09:13:21;;;;;;;20.53;3.50;;;19.70;87.00;;;;;;5064219;28;20184;-73
2022/10/21 09:16:08;;;;;;;17.40;3.37;;;19.70;86.90;;;;;;5061818;28;20206;-68
2022/10/21 09:18:47;;;;;;;19.50;3.80;;;19.70;86.90;;;;;;5061787;28;20247;-75
2022/10/21 09:21:20;;;;;;;15.93;3.80;;;19.70;86.90;;;;;;5066649;28;20645;-70
2022/10/21 09:24:18;;;;;;;15.83;3.33;;;19.70;86.70;;;;;;5067157;28;20178;-73
2022/10/21 09:26:49;;;;;;;13.83;3.10;;;19.70;86.60;;;;;;5065365;28;20853;-74
2022/10/21 09:29:29;;;;;;;11.80;3.57;;;19.70;86.50;;;;;;5065694;28;20270;-75
2022/10/21 09:32:12;;;;;;;14.23;3.00;;;19.70;86.30;;;;;;5058953;28;20183;-68
2022/10/21 09:34:57;;;;;;;15.67;3.43;;;19.70;86.30;;;;;;5064410;28;20540;-68
2022/10/21 09:37:53;;;;;;;16.90;2.97;;;19.70;86.20;;;;;;5064030;28;20197;-69
2022/10/21 09:40:30;;;;;;;13.63;3.73;;;19.70;86.10;;;;;;5051862;28;20176;-68
2022/10/21 09:43:00;;;;;;;13.03;3.37;;;19.70;86.20;;;;;;5070106;28;20214;-69
2022/10/21 09:45:39;;;;;;;9.93;2.50;;;19.70;86.10;;;;;;5055220;28;20178;-71
2022/10/21 09:48:18;;;;;;;12.43;3.53;;;19.70;86.10;;;;;;5062994;28;20662;-70
2022/10/21 09:50:55;;;;;;;9.30;3.20;;;19.70;86.20;;;;;;5070851;28;20241;-71
2022/10/21 09:53:48;;;;;;;14.43;3.10;;;19.70;86.50;;;;;;5061175;28;20179;-71
2022/10/21 09:56:41;;;;;;;14.47;3.40;;;19.60;86.60;;;;;;5047724;28;20541;-70
2022/10/21 09:59:11;;;;;;;13.77;3.80;;;19.60;86.70;;;;;;5021007;28;20191;-69
2022/10/21 10:01:40;;;;;;;10.83;3.13;;;19.60;86.90;;;;;;5063040;28;20183;-68
2022/10/21 10:04:32;;;;;;;12.33;2.97;;;19.60;87.00;;;;;;5057281;28;20184;-72
2022/10/21 10:07:23;;;;;;;13.63;2.93;;;19.60;87.10;;;;;;5056798;28;20306;-72
2022/10/21 10:09:51;;;;;;;14.27;3.87;;;19.60;87.20;;;;;;5057045;28;20270;-68
2022/10/21 10:12:23;;;;;;;18.13;3.20;;;19.50;87.40;;;;;;5065760;28;20533;-68
2022/10/21 10:14:51;;;;;;;16.70;3.53;;;19.50;87.50;;;;;;5054517;28;20172;-70
2022/10/21 10:17:25;;;;;;;11.73;3.53;;;19.50;87.50;;;;;;5062813;28;20179;-72
2022/10/21 10:20:05;;;;;;;20.77;3.43;;;19.50;87.50;;;;;;5061189;28;20588;-72
2022/10/21 10:22:40;;;;;;;13.17;3.37;;;19.50;87.70;;;;;;5062384;28;20180;-71
2022/10/21 10:25:21;;;;;;;12.53;3.60;;;19.50;87.90;;;;;;5059794;28;20191;-78
2022/10/21 10:27:52;;;;;;;15.10;3.40;;;19.50;88.00;;;;;;5061244;28;20595;-70
2022/10/21 10:30:22;;;;;;;14.53;4.20;;;19.50;88.10;;;;;;5065853;28;20669;-70
2022/10/21 10:32:55;;;;;;;18.50;4.00;;;19.40;88.30;;;;;;5056730;28;20187;-73
2022/10/21 10:35:35;;;;;;;22.90;5.23;;;19.40;88.40;;;;;;5065194;28;20253;-74
2022/10/21 10:38:03;;;;;;;18.67;4.53;;;19.40;88.50;;;;;;5067575;28;20183;-71
2022/10/21 10:40:38;;;;;;;19.20;4.70;;;19.30;88.70;;;;;;5066830;28;20191;-68
2022/10/21 10:43:27;;;;;;;20.70;4.60;;;19.30;88.80;;;;;;5056959;28;20188;-70
2022/10/21 10:46:06;;;;;;;20.87;5.97;;;19.30;88.80;;;;;;5057266;28;20516;-70
2022/10/21 10:48:45;;;;;;;24.27;5.23;;;19.30;88.90;;;;;;5064635;28;20238;-72
2022/10/21 10:51:29;;;;;;;29.37;5.67;;;19.30;88.90;;;;;;5067044;28;20187;-71
2022/10/21 10:54:24;;;;;;;32.60;5.97;;;19.30;89.10;;;;;;5066269;28;20182;-71
2022/10/21 10:56:55;;;;;;;30.57;5.50;;;19.30;89.00;;;;;;5061796;28;20184;-71
2022/10/21 10:59:31;;;;;;;36.73;7.13;;;19.30;89.00;;;;;;5068568;28;20188;-69
2022/10/21 11:02:14;;;;;;;47.23;7.90;;;19.30;89.00;;;;;;5064772;28;20210;-70
2022/10/21 11:04:47;;;;;;;38.97;7.10;;;19.30;89.00;;;;;;5066890;28;20210;-70
2022/10/21 11:07:30;;;;;;;39.03;7.17;;;19.30;89.00;;;;;;5057183;28;20689;-71
2022/10/21 11:10:26;;;;;;;32.33;6.77;;;19.30;89.10;;;;;;5065694;28;20171;-70
2022/10/21 11:12:54;;;;;;;41.00;8.03;;;19.30;89.10;;;;;;5058609;28;20202;-71
2022/10/21 11:15:29;;;;;;;29.20;6.67;;;19.30;89.10;;;;;;5066535;28;20187;-69
2022/10/21 11:18:25;;;;;;;33.60;6.90;;;19.30;89.10;;;;;;5067801;28;20257;-71
2022/10/21 11:21:17;;;;;;;35.13;6.77;;;19.30;89.20;;;;;;5067517;28;20217;-69
2022/10/21 11:24:10;;;;;;;26.10;6.67;;;19.30;89.20;;;;;;5058747;28;20198;-71
2022/10/21 11:26:54;;;;;;;31.07;6.93;;;19.30;89.20;;;;;;5065753;28;20200;-69
2022/10/21 11:29:31;;;;;;;30.93;7.03;;;19.30;89.10;;;;;;5062181;28;20662;-72
2022/10/21 11:32:16;;;;;;;25.30;6.53;;;19.20;89.10;;;;;;5067227;28;20269;-70
2022/10/21 11:35:00;;;;;;;31.40;6.10;;;19.30;89.10;;;;;;5064727;28;20180;-69
2022/10/21 11:37:45;;;;;;;34.67;7.53;;;19.20;89.00;;;;;;5059408;28;20217;-69
2022/10/21 11:40:20;;;;;;;29.50;7.20;;;19.20;89.10;;;;;;5066457;28;20184;-71
2022/10/21 11:42:51;;;;;;;27.27;6.43;;;19.20;89.10;;;;;;5068755;28;20647;-69
2022/10/21 11:45:21;;;;;;;32.30;6.27;;;19.20;89.10;;;;;;5060238;28;20192;-72
2022/10/21 11:47:51;;;;;;;21.00;6.10;;;19.20;89.00;;;;;;5060935;28;20588;-77
2022/10/21 11:50:31;;;;;;;35.17;6.10;;;19.30;89.00;;;;;;5056267;28;20198;-79
2022/10/21 11:53:18;;;;;;;33.47;6.80;;;19.30;89.00;;;;;;5054388;28;20210;-72
2022/10/21 11:55:55;;;;;;;34.93;6.60;;;19.30;88.90;;;;;;5053634;28;20637;-79
2022/10/21 11:58:32;;;;;;;28.03;6.33;;;19.20;89.00;;;;;;5054281;28;20502;-72
2022/10/21 12:01:22;;;;;;;21.13;6.57;;;19.20;88.90;;;;;;5053659;28;20229;-69
2022/10/21 12:04:02;;;;;;;26.10;6.20;;;19.20;88.90;;;;;;5053789;28;20599;-72
2022/10/21 12:06:45;;;;;;;22.97;6.20;;;19.10;88.80;;;;;;5054071;28;20207;-72
2022/10/21 12:09:29;;;;;;;31.57;7.40;;;19.10;88.80;;;;;;5053399;28;20573;-72
2022/10/21 12:12:15;;;;;;;30.87;6.70;;;19.10;88.90;;;;;;5064531;28;20185;-70
2022/10/21 12:15:10;;;;;;;30.87;7.27;;;19.10;89.00;;;;;;5056199;28;20197;-70
2022/10/21 12:17:37;;;;;;;23.63;6.17;;;19.10;89.10;;;;;;5064566;28;20194;-70
2022/10/21 12:20:26;;;;;;;26.33;6.17;;;19.10;89.20;;;;;;5053306;28;20653;-70
2022/10/21 12:23:04;;;;;;;19.83;6.43;;;19.10;89.10;;;;;;5068196;28;20592;-70
2022/10/21 12:25:40;;;;;;;28.80;6.83;;;19.10;89.20;;;;;;5061194;28;20179;-70
2022/10/21 12:28:27;;;;;;;32.97;7.10;;;19.00;89.10;;;;;;5057560;28;20574;-70
2022/10/21 12:31:22;;;;;;;28.57;6.80;;;19.10;89.30;;;;;;5060462;28;20175;-70
2022/10/21 12:33:50;;;;;;;21.90;6.57;;;19.00;89.30;;;;;;5070694;28;20191;-70
2022/10/21 12:36:23;;;;;;;31.00;7.13;;;19.00;89.40;;;;;;5070222;28;20183;-71
2022/10/21 12:38:52;;;;;;;27.67;7.20;;;19.00;89.40;;;;;;5066627;28;20183;-71
2022/10/21 12:41:22;;;;;;;26.33;6.23;;;19.00;89.50;;;;;;5062928;28;20173;-75
2022/10/21 12:44:00;;;;;;;23.70;5.93;;;19.00;89.50;;;;;;5063535;28;20188;-73
2022/10/21 12:46:51;;;;;;;29.33;6.97;;;19.00;89.50;;;;;;5054261;28;20701;-70
2022/10/21 12:49:31;;;;;;;25.87;6.57;;;19.00;89.50;;;;;;5052725;28;20293;-71
2022/10/21 12:52:20;;;;;;;23.10;6.10;;;18.90;89.60;;;;;;5065461;28;20595;-71
2022/10/21 12:54:55;;;;;;;36.13;8.00;;;18.90;89.70;;;;;;5034929;28;20201;-72
2022/10/21 12:57:27;;;;;;;29.50;7.17;;;18.90;89.70;;;;;;5061979;28;20181;-71
2022/10/21 13:00:33;;;;;;;28.20;7.43;;;18.90;89.70;;;;;;5070223;28;20182;-71
2022/10/21 13:03:02;;;;;;;30.17;7.00;;;18.90;89.80;;;;;;5052251;28;20222;-71
2022/10/21 13:05:38;;;;;;;31.17;7.47;;;18.80;89.90;;;;;;5055361;28;20591;-72
2022/10/21 13:08:26;;;;;;;28.80;7.67;;;18.80;90.00;;;;;;5051142;28;20226;-71
2022/10/21 13:11:03;;;;;;;28.73;7.40;;;18.80;89.90;;;;;;5065776;28;20190;-72